Time;durP1;ratioP1;P1;durP2;ratioP2;P2;SDS_P1;SDS_P2;PMS_P1;PMS_P2;Temp;Humidity;BMP_temperature;BMP_pressure;BME280_temperature;BME280_humidity;BME280_pressure;Samples;Min_cycle;Max_cycle;Signal;HPM_P1;HPM_P2
2021/05/14 00:00:22;;;;;;;13.95;5.95;;;;;;;16.88;67.53;99154.78;5059201;28;20033;-69
2021/05/14 00:02:47;;;;;;;10.90;5.55;;;;;;;16.90;68.40;99159.91;5061343;28;20025;-69
2021/05/14 00:05:13;;;;;;;10.48;5.43;;;;;;;16.96;68.35;99148.34;5063537;28;20024;-74
2021/05/14 00:07:39;;;;;;;9.27;5.43;;;;;;;17.01;68.24;99151.19;5062765;28;20033;-74
2021/05/14 00:10:06;;;;;;;11.75;5.28;;;;;;;17.13;67.26;99152.13;5059688;28;20155;-74
2021/05/14 00:12:32;;;;;;;10.82;5.90;;;;;;;17.07;67.89;99149.50;5064717;28;20021;-74
2021/05/14 00:14:57;;;;;;;10.13;5.47;;;;;;;17.09;67.48;99144.75;5060315;28;20333;-75
2021/05/14 00:17:23;;;;;;;7.78;5.00;;;;;;;17.10;67.35;99141.03;5060494;28;20095;-74
2021/05/14 00:19:48;;;;;;;10.07;4.82;;;;;;;17.05;67.14;99140.88;5059817;28;20211;-69
2021/05/14 00:22:14;;;;;;;10.45;4.93;;;;;;;17.08;66.85;99140.44;5061139;28;20303;-74
2021/05/14 00:24:39;;;;;;;10.27;5.22;;;;;;;17.09;66.85;99134.88;5059090;28;20060;-74
2021/05/14 00:27:05;;;;;;;8.93;5.30;;;;;;;17.04;66.00;99126.69;5060113;28;20096;-69
2021/05/14 00:29:30;;;;;;;6.70;4.53;;;;;;;16.96;66.58;99134.97;5060024;28;20107;-74
2021/05/14 00:31:56;;;;;;;8.35;4.70;;;;;;;17.11;65.97;99154.19;5076846;28;20044;-69
2021/05/14 00:34:21;;;;;;;8.80;3.85;;;;;;;17.08;65.66;99161.84;5059402;28;20049;-69
2021/05/14 00:36:48;;;;;;;10.75;4.40;;;;;;;17.08;64.07;99153.81;5059586;28;20041;-74
2021/05/14 00:39:14;;;;;;;11.82;5.43;;;;;;;16.70;64.80;99159.25;5060294;28;20333;-76
2021/05/14 00:41:39;;;;;;;10.52;5.30;;;;;;;16.10;66.43;99153.34;5059572;28;20029;-74
2021/05/14 00:44:25;;;;;;;8.95;5.10;;;;;;;15.84;67.13;99175.59;5060032;28;20024;-74
2021/05/14 00:46:51;;;;;;;9.57;6.10;;;;;;;15.45;67.78;99182.59;5060454;28;20040;-74
2021/05/14 00:49:16;;;;;;;12.52;5.97;;;;;;;15.34;69.54;99177.91;5069721;28;20041;-68
2021/05/14 00:51:41;;;;;;;15.48;5.78;;;;;;;15.38;70.21;99171.13;5059317;28;20036;-71
2021/05/14 00:54:08;;;;;;;10.95;6.05;;;;;;;15.44;71.13;99166.81;5060142;28;20303;-73
2021/05/14 00:56:33;;;;;;;11.40;5.70;;;;;;;15.47;70.68;99171.72;5058868;28;20053;-70
2021/05/14 00:58:59;;;;;;;15.18;5.38;;;;;;;15.67;69.85;99179.75;5059484;28;20088;-76
2021/05/14 01:01:24;;;;;;;10.27;4.70;;;;;;;15.37;70.58;99180.16;5060088;28;20196;-71
2021/05/14 01:03:50;;;;;;;9.65;5.85;;;;;;;15.52;69.69;99174.59;5059421;28;20087;-76
2021/05/14 01:06:15;;;;;;;10.88;5.28;;;;;;;15.39;69.71;99174.59;5059187;28;20041;-69
2021/05/14 01:08:41;;;;;;;7.18;4.38;;;;;;;15.45;69.66;99173.78;5059739;28;20100;-69
2021/05/14 01:11:06;;;;;;;6.40;4.25;;;;;;;15.43;69.37;99173.16;5057881;28;20402;-74
2021/05/14 01:13:32;;;;;;;9.50;4.53;;;;;;;15.49;69.41;99167.81;5063274;28;20024;-74
2021/05/14 01:15:58;;;;;;;7.13;4.53;;;;;;;15.41;68.77;99165.38;5077489;28;20025;-74
2021/05/14 01:18:24;;;;;;;7.22;3.78;;;;;;;15.49;68.58;99169.66;5058746;28;20086;-68
2021/05/14 01:20:50;;;;;;;7.18;4.07;;;;;;;15.49;68.15;99162.47;5058805;28;20082;-75
2021/05/14 01:23:15;;;;;;;6.63;3.78;;;;;;;15.61;67.35;99152.06;5060065;28;20037;-69
2021/05/14 01:25:41;;;;;;;9.95;4.20;;;;;;;15.55;67.57;99153.66;5058870;28;20120;-74
2021/05/14 01:28:06;;;;;;;8.43;3.90;;;;;;;15.62;66.95;99162.53;5059813;28;20319;-74
2021/05/14 01:30:32;;;;;;;6.82;3.65;;;;;;;15.57;66.55;99164.09;5060296;28;20113;-68
2021/05/14 01:32:57;;;;;;;7.85;3.22;;;;;;;15.45;66.88;99166.59;5058998;28;20036;-68
2021/05/14 01:35:23;;;;;;;5.32;3.22;;;;;;;15.48;66.63;99162.69;5059451;28;20049;-68
2021/05/14 01:37:48;;;;;;;5.20;3.70;;;;;;;15.59;66.20;99162.91;5058725;28;20051;-68
2021/05/14 01:40:14;;;;;;;10.00;3.80;;;;;;;15.69;65.63;99165.19;5059548;28;20262;-74
2021/05/14 01:42:49;;;;;;;4.90;3.08;;;;;;;15.63;65.72;99148.16;5058492;28;20029;-69
2021/05/14 01:45:15;;;;;;;7.45;3.70;;;;;;;15.77;65.52;99158.78;5058199;28;20100;-69
2021/05/14 01:47:41;;;;;;;10.57;3.10;;;;;;;15.83;65.45;99157.94;5058070;28;20036;-75
2021/05/14 01:50:07;;;;;;;8.75;3.60;;;;;;;15.41;65.93;99153.88;5059495;28;20033;-68
2021/05/14 01:52:33;;;;;;;5.55;3.70;;;;;;;15.45;65.55;99165.78;5059244;28;20184;-69
2021/05/14 01:55:01;;;;;;;7.65;3.30;;;;;;;15.41;65.51;99156.53;5058562;28;20025;-74
2021/05/14 01:57:27;;;;;;;6.88;3.55;;;;;;;15.19;66.55;99164.78;5060556;28;20067;-68
2021/05/14 01:59:53;;;;;;;5.55;3.78;;;;;;;14.82;68.16;99163.53;5062506;28;20302;-74
2021/05/14 02:02:20;;;;;;;7.88;3.60;;;;;;;14.87;68.28;99166.41;5062277;28;20033;-68
2021/05/14 02:04:45;;;;;;;9.25;3.33;;;;;;;14.92;68.01;99168.47;5062581;28;20028;-74
2021/05/14 02:07:11;;;;;;;8.32;3.47;;;;;;;14.82;68.57;99162.72;5062362;28;20060;-74
2021/05/14 02:09:37;;;;;;;9.50;3.83;;;;;;;14.72;68.77;99163.09;5058879;28;20041;-69
2021/05/14 02:12:02;;;;;;;6.55;4.47;;;;;;;14.81;68.41;99172.53;5058893;28;20033;-68
2021/05/14 02:14:28;;;;;;;6.70;3.30;;;;;;;15.07;67.73;99155.75;5061151;28;20343;-74
2021/05/14 02:16:53;;;;;;;8.93;3.65;;;;;;;15.15;68.05;99162.72;5059320;28;20044;-74
2021/05/14 02:19:19;;;;;;;7.50;3.95;;;;;;;15.22;67.58;99167.03;5057052;28;20082;-69
2021/05/14 02:21:44;;;;;;;7.72;3.47;;;;;;;15.31;68.03;99170.31;5057509;28;20025;-74
2021/05/14 02:24:10;;;;;;;9.85;3.60;;;;;;;15.27;68.23;99169.91;5058234;28;20090;-74
2021/05/14 02:26:35;;;;;;;7.38;3.67;;;;;;;15.14;67.81;99164.56;5072888;28;20043;-74
2021/05/14 02:29:02;;;;;;;4.07;3.35;;;;;;;15.14;67.62;99161.06;5057944;28;20289;-74
2021/05/14 02:31:28;;;;;;;8.15;3.25;;;;;;;15.21;67.85;99189.38;5058194;28;20047;-69
2021/05/14 02:33:53;;;;;;;8.55;3.67;;;;;;;15.20;67.94;99194.94;5057939;28;20021;-74
2021/05/14 02:36:19;;;;;;;6.93;3.75;;;;;;;15.32;67.48;99194.09;5059733;28;20055;-76
2021/05/14 02:38:44;;;;;;;5.93;3.80;;;;;;;15.19;67.97;99193.28;5061142;28;20029;-76
2021/05/14 02:41:11;;;;;;;10.00;3.60;;;;;;;14.95;68.39;99184.03;5074072;28;20210;-71
2021/05/14 02:43:37;;;;;;;8.07;4.28;;;;;;;14.96;68.54;99207.84;5058600;28;20039;-70
2021/05/14 02:46:03;;;;;;;14.02;4.60;;;;;;;14.93;68.63;99218.09;5055924;28;20041;-70
2021/05/14 02:48:28;;;;;;;10.10;3.95;;;;;;;14.85;68.65;99213.75;5057352;28;20188;-74
2021/05/14 02:50:54;;;;;;;11.10;3.50;;;;;;;14.90;68.23;99216.63;5058364;28;20048;-69
2021/05/14 02:53:19;;;;;;;13.05;4.25;;;;;;;14.99;67.96;99231.41;5057543;28;20325;-73
2021/05/14 02:55:45;;;;;;;12.27;3.70;;;;;;;14.78;68.77;99226.25;5056206;28;20094;-74
2021/05/14 02:58:10;;;;;;;8.73;4.03;;;;;;;14.88;68.34;99226.69;5058593;28;20307;-74
2021/05/14 03:00:36;;;;;;;7.00;3.53;;;;;;;14.77;68.68;99229.94;5057022;28;20048;-76
2021/05/14 03:03:01;;;;;;;8.15;3.83;;;;;;;14.89;68.16;99222.19;5057543;28;20092;-68
2021/05/14 03:05:27;;;;;;;14.45;4.05;;;;;;;14.88;68.13;99228.53;5057975;28;20056;-73
2021/05/14 03:07:53;;;;;;;10.77;3.72;;;;;;;14.97;67.97;99237.97;5057036;28;20056;-76
2021/05/14 03:10:18;;;;;;;6.70;3.55;;;;;;;15.03;67.62;99234.50;5057169;28;20056;-74
2021/05/14 03:12:44;;;;;;;10.07;3.80;;;;;;;15.11;67.44;99236.97;5058253;28;20037;-68
2021/05/14 03:15:10;;;;;;;8.05;3.50;;;;;;;15.05;67.17;99240.44;5057020;28;20377;-74
2021/05/14 03:17:35;;;;;;;9.45;3.72;;;;;;;14.92;67.56;99245.75;5054147;28;20067;-76
2021/05/14 03:20:02;;;;;;;7.85;3.67;;;;;;;15.02;67.44;99248.84;5058014;28;20033;-72
2021/05/14 03:22:28;;;;;;;10.60;3.40;;;;;;;15.08;66.78;99244.56;5057185;28;20192;-76
2021/05/14 03:24:53;;;;;;;5.88;3.33;;;;;;;15.22;65.92;99248.88;5058011;28;20100;-74
2021/05/14 03:27:18;;;;;;;6.25;2.88;;;;;;;15.22;65.95;99251.56;5055011;28;20095;-69
2021/05/14 03:29:44;;;;;;;8.70;3.60;;;;;;;15.08;66.64;99253.38;5057264;28;20250;-74
2021/05/14 03:32:09;;;;;;;6.85;3.13;;;;;;;15.20;66.42;99256.28;5058079;28;20044;-74
2021/05/14 03:34:35;;;;;;;6.60;3.45;;;;;;;15.37;65.52;99267.34;5063127;28;20323;-69
2021/05/14 03:37:00;;;;;;;8.95;3.30;;;;;;;15.45;65.13;99264.50;5061448;28;20032;-74
2021/05/14 03:39:27;;;;;;;7.50;3.10;;;;;;;15.53;64.61;99258.94;5060444;28;20088;-74
2021/05/14 03:44:36;;;;;;;6.22;3.58;;;;;;;15.68;64.67;99264.97;5061892;28;20063;-74
2021/05/14 03:47:05;;;;;;;8.27;3.97;;;;;;;15.77;64.17;99266.38;5062320;28;20033;-69
2021/05/14 03:49:33;;;;;;;6.18;4.00;;;;;;;15.74;64.81;99261.47;5060481;28;20048;-74
2021/05/14 03:51:58;;;;;;;11.88;4.60;;;;;;;15.88;64.35;99264.94;5056139;28;20311;-74
2021/05/14 03:54:24;;;;;;;10.48;4.78;;;;;;;15.93;63.99;99267.81;5060299;28;20110;-69
2021/05/14 03:56:49;;;;;;;12.77;4.45;;;;;;;16.10;63.21;99265.50;5060231;28;20058;-74
2021/05/14 03:59:16;;;;;;;13.65;5.10;;;;;;;16.05;63.32;99267.97;5060463;28;20033;-74
2021/05/14 04:01:41;;;;;;;8.65;4.25;;;;;;;16.01;63.56;99278.25;5061762;28;20099;-74
2021/05/14 04:04:07;;;;;;;12.02;3.80;;;;;;;16.06;63.32;99274.97;5059891;28;20088;-74
2021/05/14 04:06:32;;;;;;;14.07;3.90;;;;;;;15.96;63.26;99251.38;5071777;28;20021;-69
2021/05/14 04:08:58;;;;;;;11.88;4.90;;;;;;;16.09;63.41;99269.22;5059452;28;20041;-70
2021/05/14 04:16:51;;;;;;;9.40;3.72;;;;;;;16.12;62.84;99282.97;5060352;28;20070;-74
2021/05/14 04:19:16;;;;;;;6.88;3.88;;;;;;;16.07;63.48;99281.94;5049828;28;20017;-75
2021/05/14 04:21:42;;;;;;;6.68;3.70;;;;;;;16.10;63.13;99287.69;5058458;28;20096;-74
2021/05/14 04:24:08;;;;;;;6.38;3.15;;;;;;;16.15;63.23;99279.88;5059888;28;20040;-69
2021/05/14 04:26:33;;;;;;;6.93;3.30;;;;;;;16.36;62.70;99294.00;5060263;28;20024;-69
2021/05/14 04:28:59;;;;;;;10.32;3.15;;;;;;;16.51;62.19;99283.88;5059598;28;20033;-69
2021/05/14 04:31:25;;;;;;;6.43;3.13;;;;;;;16.77;61.23;99281.16;5060861;28;20040;-69
2021/05/14 04:33:50;;;;;;;7.15;2.88;;;;;;;17.03;60.98;99284.72;5063791;28;20029;-74
2021/05/14 04:36:16;;;;;;;6.65;3.25;;;;;;;17.48;59.35;99280.91;5061536;28;20330;-74
2021/05/14 04:38:41;;;;;;;8.50;4.20;;;;;;;17.78;58.49;99291.84;5059437;28;20066;-69
2021/05/14 04:41:07;;;;;;;11.32;4.93;;;;;;;18.01;57.73;99293.88;5060522;28;20354;-69
2021/05/14 04:43:32;;;;;;;9.20;4.80;;;;;;;18.32;57.20;99300.16;5059438;28;20190;-75
2021/05/14 04:45:58;;;;;;;13.75;4.65;;;;;;;18.45;57.38;99294.66;5058262;28;20037;-69
2021/05/14 04:48:23;;;;;;;17.75;5.00;;;;;;;18.46;55.73;99286.38;5059846;28;20330;-74
2021/05/14 04:50:49;;;;;;;15.93;4.47;;;;;;;18.69;55.61;99295.63;5059346;28;20037;-74
2021/05/14 04:53:15;;;;;;;10.00;4.85;;;;;;;18.92;55.27;99300.31;5065070;28;20218;-69
2021/05/14 04:55:41;;;;;;;8.35;4.15;;;;;;;19.01;54.77;99299.78;5058683;28;20160;-69
2021/05/14 04:58:07;;;;;;;7.38;3.83;;;;;;;19.33;54.05;99300.34;5059673;28;20021;-74
2021/05/14 05:00:33;;;;;;;7.93;3.45;;;;;;;19.69;53.19;99306.63;5059374;28;20032;-69
2021/05/14 05:02:59;;;;;;;7.75;3.60;;;;;;;19.93;51.55;99310.19;5059012;28;20071;-69
2021/05/14 05:05:25;;;;;;;6.43;3.03;;;;;;;19.99;51.54;99314.63;5060227;28;20048;-69
2021/05/14 05:07:50;;;;;;;7.55;3.35;;;;;;;20.24;50.75;99317.06;5058727;28;20033;-74
2021/05/14 05:10:17;;;;;;;6.10;3.17;;;;;;;20.51;50.07;99310.19;5055950;28;20032;-75
2021/05/14 05:12:43;;;;;;;9.68;3.00;;;;;;;20.80;49.65;99308.34;5067651;28;20017;-73
2021/05/14 05:15:10;;;;;;;12.75;3.03;;;;;;;21.04;48.21;99312.59;5061447;28;20091;-74
2021/05/14 05:17:36;;;;;;;7.55;2.60;;;;;;;20.95;48.69;99294.41;5058721;28;20252;-69
2021/05/14 05:20:02;;;;;;;11.70;3.33;;;;;;;21.17;48.00;99308.81;5055648;28;20155;-74
2021/05/14 05:22:27;;;;;;;7.60;2.67;;;;;;;21.25;48.82;99313.84;5060709;28;20056;-71
2021/05/14 05:24:53;;;;;;;6.47;2.80;;;;;;;21.58;47.63;99317.63;5062156;28;20326;-74
2021/05/14 05:27:18;;;;;;;7.32;2.35;;;;;;;21.66;46.91;99317.22;5075686;28;20020;-69
2021/05/14 05:29:44;;;;;;;5.78;2.25;;;;;;;21.93;45.27;99303.94;5059330;28;20032;-69
2021/05/14 05:32:09;;;;;;;4.63;1.90;;;;;;;22.27;43.78;99304.72;5058636;28;20066;-74
2021/05/14 05:34:35;;;;;;;4.63;2.10;;;;;;;22.51;42.49;99298.03;5058769;28;20153;-69
2021/05/14 05:37:00;;;;;;;8.65;2.60;;;;;;;22.49;43.61;99316.38;5056009;28;20028;-70
2021/05/14 05:39:26;;;;;;;3.42;2.00;;;;;;;22.77;42.80;99315.34;5058354;28;20037;-74
2021/05/14 05:41:52;;;;;;;6.20;1.98;;;;;;;22.49;43.29;99315.53;5057959;28;20184;-69
2021/05/14 05:44:17;;;;;;;7.38;2.10;;;;;;;22.80;42.60;99317.59;5058834;28;20036;-69
2021/05/14 05:46:43;;;;;;;7.63;2.20;;;;;;;23.06;42.57;99316.03;5059597;28;20054;-69
2021/05/14 05:49:08;;;;;;;6.85;2.00;;;;;;;23.01;41.28;99299.75;5058716;28;20052;-74
2021/05/14 05:51:34;;;;;;;2.53;1.80;;;;;;;23.31;41.90;99325.44;5060332;28;20021;-75
2021/05/14 05:54:00;;;;;;;8.90;2.10;;;;;;;23.22;41.49;99319.69;5058151;28;20274;-74
2021/05/14 05:56:26;;;;;;;5.20;2.08;;;;;;;23.47;41.08;99325.34;5059278;28;20040;-69
2021/05/14 05:58:52;;;;;;;6.53;3.03;;;;;;;23.70;41.75;99331.50;5061407;28;20044;-75
2021/05/14 06:01:18;;;;;;;6.13;1.83;;;;;;;23.95;41.17;99323.63;5077702;28;20029;-75
2021/05/14 06:03:43;;;;;;;4.32;2.30;;;;;;;24.38;41.10;99322.59;5063054;28;20261;-75
2021/05/14 06:06:09;;;;;;;4.80;2.50;;;;;;;24.55;39.77;99318.88;5062460;28;20060;-69
2021/05/14 06:08:35;;;;;;;8.80;2.10;;;;;;;24.73;38.88;99319.22;5060354;28;20045;-75
2021/05/14 06:11:02;;;;;;;6.75;1.98;;;;;;;24.75;38.41;99324.38;5058863;28;20259;-75
2021/05/14 06:13:27;;;;;;;7.75;2.30;;;;;;;25.03;38.72;99323.19;5058100;28;20239;-75
2021/05/14 06:15:57;;;;;;;5.40;2.00;;;;;;;24.88;38.48;99304.94;5059198;28;20066;-69
2021/05/14 06:18:23;;;;;;;7.93;1.80;;;;;;;25.13;38.32;99324.03;5058721;28;20066;-75
2021/05/14 06:20:49;;;;;;;8.38;1.50;;;;;;;25.45;36.98;99312.97;5057670;28;20044;-75
2021/05/14 06:23:14;;;;;;;4.60;1.63;;;;;;;25.66;37.25;99319.25;5070237;28;20013;-70
2021/05/14 06:25:40;;;;;;;3.20;1.52;;;;;;;25.78;36.55;99314.34;5073229;28;20033;-75
2021/05/14 06:28:07;;;;;;;12.20;1.90;;;;;;;26.20;36.02;99313.25;5058969;28;20059;-70
2021/05/14 06:30:34;;;;;;;3.30;1.75;;;;;;;26.47;34.94;99315.66;5061594;28;20037;-69
2021/05/14 06:32:59;;;;;;;5.35;1.60;;;;;;;26.41;35.21;99322.19;5060258;28;20246;-75
2021/05/14 06:35:25;;;;;;;6.93;1.55;;;;;;;26.30;34.44;99315.94;5057245;28;20036;-69
2021/05/14 06:37:51;;;;;;;3.70;1.40;;;;;;;25.81;35.82;99307.56;5057807;28;20203;-69
2021/05/14 06:40:17;;;;;;;4.25;1.85;;;;;;;26.00;35.20;99310.53;5057837;28;20071;-69
2021/05/14 06:42:43;;;;;;;3.65;1.42;;;;;;;26.21;35.52;99311.34;5057488;28;20642;-69
2021/05/14 06:45:09;;;;;;;4.70;1.27;;;;;;;25.92;35.31;99309.19;5057635;28;20025;-70
2021/05/14 06:47:35;;;;;;;6.88;1.70;;;;;;;26.30;34.74;99301.56;5058623;28;20092;-70
2021/05/14 06:50:04;;;;;;;6.65;1.45;;;;;;;26.79;34.51;99309.81;5058205;28;20278;-76
2021/05/14 06:52:30;;;;;;;8.60;1.60;;;;;;;27.04;33.57;99314.34;5058385;28;20028;-70
2021/05/14 06:54:55;;;;;;;5.40;1.52;;;;;;;27.62;32.44;99315.34;5057819;28;20044;-75
2021/05/14 06:57:21;;;;;;;7.53;1.33;;;;;;;27.29;33.10;99318.84;5058368;28;20032;-70
2021/05/14 06:59:46;;;;;;;3.58;1.20;;;;;;;27.69;33.03;99317.75;5057580;28;20336;-74
2021/05/14 07:02:12;;;;;;;4.68;1.20;;;;;;;27.94;31.56;99316.72;5056618;28;20031;-72
2021/05/14 07:04:38;;;;;;;3.63;1.40;;;;;;;27.44;33.38;99323.34;5057013;28;20104;-68
2021/05/14 07:07:03;;;;;;;4.93;1.48;;;;;;;27.52;32.54;99322.75;5056777;28;20055;-73
2021/05/14 07:09:29;;;;;;;6.05;1.40;;;;;;;27.88;32.25;99317.88;5059867;28;20036;-72
2021/05/14 07:11:54;;;;;;;5.60;1.60;;;;;;;27.83;32.67;99321.44;5061249;28;20041;-68
2021/05/14 07:14:20;;;;;;;4.28;1.98;;;;;;;28.07;32.22;99326.94;5060820;28;20031;-68
2021/05/14 07:16:45;;;;;;;3.20;1.38;;;;;;;27.92;31.68;99318.91;5062500;28;20025;-69
2021/05/14 07:19:14;;;;;;;4.97;1.50;;;;;;;28.08;31.94;99308.69;5060433;28;20159;-69
2021/05/14 07:21:41;;;;;;;4.60;1.67;;;;;;;28.29;31.48;99307.44;5061031;28;20056;-73
2021/05/14 07:24:07;;;;;;;5.18;1.58;;;;;;;28.72;29.57;99308.28;5061037;28;20099;-69
2021/05/14 07:26:33;;;;;;;5.22;2.25;;;;;;;28.73;30.09;99317.28;5060373;28;20064;-70
2021/05/14 07:28:59;;;;;;;3.10;1.35;;;;;;;28.48;30.78;99315.66;5060933;28;20033;-75
2021/05/14 07:31:24;;;;;;;5.43;1.45;;;;;;;28.39;29.68;99315.50;5062707;28;20044;-70
2021/05/14 07:33:50;;;;;;;5.05;1.63;;;;;;;28.66;29.09;99314.91;5065550;28;20033;-70
2021/05/14 07:36:16;;;;;;;3.50;1.40;;;;;;;28.90;28.90;99298.56;5073470;28;20254;-70
2021/05/14 07:38:41;;;;;;;4.43;1.45;;;;;;;29.05;28.64;99308.44;5065914;28;20103;-70
2021/05/14 07:41:08;;;;;;;4.53;1.67;;;;;;;29.10;29.23;99308.38;5065233;28;20041;-70
2021/05/14 07:43:34;;;;;;;3.70;1.63;;;;;;;29.28;28.51;99291.22;5065019;28;20131;-70
2021/05/14 07:46:00;;;;;;;8.27;1.75;;;;;;;29.60;29.13;99295.94;5064492;28;20041;-71
2021/05/14 07:48:26;;;;;;;4.85;1.45;;;;;;;29.61;27.73;99291.28;5065329;28;20025;-70
2021/05/14 07:50:53;;;;;;;2.30;1.30;;;;;;;29.59;26.19;99283.41;5080012;28;20031;-75
2021/05/14 07:53:18;;;;;;;5.80;1.58;;;;;;;29.68;27.50;99278.06;5064533;28;20037;-75
2021/05/14 07:55:44;;;;;;;5.13;1.42;;;;;;;29.62;26.85;99280.06;5064268;28;20040;-70
2021/05/14 07:58:09;;;;;;;4.43;1.30;;;;;;;29.67;27.44;99284.63;5065334;28;20370;-71
2021/05/14 08:00:35;;;;;;;4.40;1.38;;;;;;;29.77;27.52;99284.44;5079849;28;20044;-74
2021/05/14 08:03:00;;;;;;;3.80;1.33;;;;;;;29.70;26.10;99279.38;5062969;28;20025;-75
2021/05/14 08:05:26;;;;;;;4.53;1.40;;;;;;;29.69;27.47;99294.13;5064244;28;20341;-75
2021/05/14 08:08:08;;;;;;;3.55;1.42;;;;;;;29.94;27.21;99297.53;5063043;28;20031;-75
2021/05/14 08:10:34;;;;;;;5.60;1.17;;;;;;;29.67;27.47;99293.63;5064426;28;20028;-70
2021/05/14 08:12:59;;;;;;;6.70;1.70;;;;;;;29.28;28.78;99302.13;5064851;28;20327;-70
2021/05/14 08:15:25;;;;;;;2.95;1.30;;;;;;;29.49;28.02;99306.19;5063905;28;20033;-70
2021/05/14 08:17:51;;;;;;;4.90;1.20;;;;;;;29.50;28.09;99296.91;5064373;28;20029;-75
2021/05/14 08:20:18;;;;;;;2.60;1.20;;;;;;;29.82;27.72;99300.75;5063953;28;20064;-76
2021/05/14 08:22:44;;;;;;;2.63;1.30;;;;;;;29.04;28.26;99296.72;5064138;28;20033;-75
2021/05/14 08:25:11;;;;;;;3.70;1.02;;;;;;;29.09;28.46;99301.28;5064470;28;20406;-70
2021/05/14 08:27:37;;;;;;;4.93;0.90;;;;;;;28.74;26.43;99302.56;5063666;28;20037;-76
2021/05/14 08:30:04;;;;;;;2.33;0.82;;;;;;;29.17;27.61;99300.66;5062547;28;20029;-76
2021/05/14 08:32:29;;;;;;;5.05;1.67;;;;;;;29.44;27.06;99292.63;5064247;28;20051;-70
2021/05/14 08:34:55;;;;;;;3.83;0.98;;;;;;;29.62;26.08;99293.72;5064315;28;20074;-70
2021/05/14 08:37:21;;;;;;;3.00;0.90;;;;;;;29.33;27.98;99285.69;5064048;28;20049;-75
2021/05/14 08:40:33;;;;;;;4.95;1.00;;;;;;;29.57;27.67;99285.59;5063362;28;20034;-70
2021/05/14 08:43:00;;;;;;;1.88;0.80;;;;;;;29.88;24.63;99286.69;5064162;28;20262;-70
2021/05/14 08:45:26;;;;;;;4.47;0.95;;;;;;;30.06;25.81;99279.59;5063972;28;20338;-75
2021/05/14 08:47:55;;;;;;;3.78;1.17;;;;;;;29.92;24.88;99288.84;5064219;28;20043;-75
2021/05/14 08:50:20;;;;;;;4.95;0.93;;;;;;;29.88;24.59;99278.50;5073171;28;20029;-70
2021/05/14 08:52:47;;;;;;;4.28;0.93;;;;;;;29.73;23.95;99281.50;5064054;28;20091;-75
2021/05/14 08:55:13;;;;;;;2.88;1.00;;;;;;;29.61;24.76;99281.19;5064120;28;20033;-70
2021/05/14 08:57:40;;;;;;;2.30;0.85;;;;;;;29.41;25.42;99279.56;5063920;28;20091;-70
2021/05/14 09:00:08;;;;;;;2.63;1.02;;;;;;;29.39;26.54;99264.59;5064231;28;20055;-70
2021/05/14 09:02:35;;;;;;;2.42;1.02;;;;;;;29.27;24.03;99275.16;5063736;28;20257;-75
2021/05/14 09:05:28;;;;;;;2.58;0.70;;;;;;;29.02;25.12;99277.13;5064338;28;20039;-75
2021/05/14 09:07:56;;;;;;;2.20;1.13;;;;;;;29.41;25.11;99276.03;5057303;28;20037;-70
2021/05/14 09:10:23;;;;;;;2.85;0.70;;;;;;;29.58;23.97;99276.31;5063633;28;20082;-70
2021/05/14 09:12:49;;;;;;;3.22;0.90;;;;;;;29.37;24.00;99281.25;5063103;28;20219;-75
2021/05/14 09:15:26;;;;;;;3.38;0.90;;;;;;;28.64;24.44;99275.44;5059043;28;20033;-75
2021/05/14 09:18:09;;;;;;;2.05;0.73;;;;;;;28.22;25.79;99277.00;5055906;28;20035;-75
2021/05/14 09:20:55;;;;;;;2.90;1.27;;;;;;;28.10;27.43;99276.59;5059874;28;20029;-75
2021/05/14 09:23:21;;;;;;;3.95;0.90;;;;;;;28.19;26.02;99280.31;5056358;28;20052;-70
2021/05/14 09:25:58;;;;;;;3.72;1.25;;;;;;;28.37;25.91;99286.94;5059268;28;20049;-75
2021/05/14 09:28:36;;;;;;;2.72;0.70;;;;;;;28.66;26.42;99284.13;5059200;28;20031;-75
2021/05/14 09:31:07;;;;;;;3.55;1.30;;;;;;;28.41;25.80;99288.78;5060902;28;20045;-70
2021/05/14 09:33:34;;;;;;;4.57;1.27;;;;;;;28.13;26.81;99287.72;5062035;28;20037;-70
2021/05/14 09:36:03;;;;;;;6.25;1.10;;;;;;;27.99;27.11;99298.44;5058380;28;20068;-69
2021/05/14 09:38:38;;;;;;;3.67;0.82;;;;;;;27.56;26.71;99300.16;5059764;28;20047;-70
2021/05/14 09:41:04;;;;;;;4.45;0.80;;;;;;;27.23;27.04;99303.66;5059376;28;20029;-75
2021/05/14 09:43:29;;;;;;;4.55;1.10;;;;;;;27.07;27.56;99283.09;5058724;28;20055;-70
2021/05/14 09:45:55;;;;;;;8.10;1.10;;;;;;;27.10;28.32;99299.66;5059652;28;20040;-70
2021/05/14 09:48:26;;;;;;;4.72;1.00;;;;;;;27.12;29.69;99291.22;5058252;28;20319;-74
2021/05/14 09:50:53;;;;;;;4.43;1.20;;;;;;;26.95;28.46;99286.91;5058342;28;20302;-74
2021/05/14 09:53:20;;;;;;;3.22;1.10;;;;;;;26.90;28.76;99275.25;5070466;28;20032;-70
2021/05/14 09:56:02;;;;;;;5.82;1.30;;;;;;;26.95;28.78;99278.75;5056774;28;20059;-75
2021/05/14 09:58:30;;;;;;;6.07;1.63;;;;;;;26.97;29.02;99281.19;5062805;28;20104;-75
2021/05/14 10:00:56;;;;;;;7.03;2.05;;;;;;;26.80;29.09;99281.56;5062172;28;20045;-70
2021/05/14 10:03:25;;;;;;;7.10;1.52;;;;;;;26.95;30.67;99283.38;5062684;28;20036;-69
2021/05/14 10:05:55;;;;;;;8.52;2.00;;;;;;;26.86;29.66;99257.91;5062058;28;20057;-75
2021/05/14 10:08:22;;;;;;;3.85;1.23;;;;;;;27.11;29.67;99268.66;5062745;28;20067;-74
2021/05/14 10:10:49;;;;;;;3.40;1.15;;;;;;;27.34;30.37;99269.88;5061995;28;20100;-75
2021/05/14 10:13:14;;;;;;;6.97;1.25;;;;;;;27.32;29.38;99266.63;5062948;28;20279;-74
2021/05/14 10:15:40;;;;;;;7.32;1.50;;;;;;;27.09;29.36;99257.28;5061933;28;20041;-70
2021/05/14 10:18:14;;;;;;;4.72;0.95;;;;;;;27.05;29.36;99264.38;5062307;28;20041;-75
2021/05/14 10:20:40;;;;;;;6.15;1.15;;;;;;;27.17;29.21;99267.53;5061938;28;20033;-75
2021/05/14 10:23:06;;;;;;;5.10;0.90;;;;;;;27.22;29.17;99256.63;5061446;28;20032;-75
2021/05/14 10:25:38;;;;;;;2.22;0.88;;;;;;;27.12;29.32;99269.47;5061961;28;20317;-71
2021/05/14 10:28:12;;;;;;;7.22;1.40;;;;;;;27.00;28.92;99257.03;5061295;28;20336;-75
2021/05/14 10:31:05;;;;;;;11.05;1.27;;;;;;;27.08;29.83;99274.66;5061946;28;20336;-70
2021/05/14 10:33:54;;;;;;;7.18;1.60;;;;;;;27.34;31.51;99278.03;5062633;28;20037;-75
2021/05/14 10:36:27;;;;;;;14.55;2.90;;;;;;;26.90;27.30;99273.34;5061992;28;20279;-70
2021/05/14 10:39:02;;;;;;;9.98;2.75;;;;;;;26.54;27.63;99277.34;5049773;28;20079;-70
2021/05/14 10:41:28;;;;;;;6.53;2.08;;;;;;;26.60;28.04;99277.03;5061657;28;20021;-74
2021/05/14 10:43:56;;;;;;;6.85;1.70;;;;;;;26.88;28.44;99261.97;5062528;28;20040;-75
2021/05/14 10:46:27;;;;;;;3.78;0.95;;;;;;;26.89;26.81;99254.63;5061938;28;20376;-75
2021/05/14 10:48:59;;;;;;;8.57;1.35;;;;;;;26.98;27.14;99259.22;5062430;28;20202;-70
2021/05/14 10:51:58;;;;;;;5.78;1.67;;;;;;;27.03;26.62;99247.50;5061694;28;20041;-75
2021/05/14 10:54:39;;;;;;;9.50;1.88;;;;;;;27.08;26.94;99244.78;5050398;28;20037;-70
2021/05/14 10:57:05;;;;;;;4.88;1.30;;;;;;;27.12;27.71;99243.13;5061875;28;20064;-70
2021/05/14 10:59:34;;;;;;;5.93;1.45;;;;;;;26.98;26.74;99225.78;5061697;28;20094;-70
2021/05/14 11:01:59;;;;;;;10.05;1.40;;;;;;;26.98;26.90;99233.94;5059518;28;20388;-75
2021/05/14 11:04:25;;;;;;;5.60;1.20;;;;;;;26.97;27.30;99237.72;5073447;28;20432;-75
2021/05/14 11:06:53;;;;;;;2.90;1.23;;;;;;;26.68;27.13;99229.47;5058204;28;20048;-70
2021/05/14 11:09:22;;;;;;;7.78;1.10;;;;;;;26.22;28.73;99199.00;5060310;28;20056;-70
2021/05/14 11:11:57;;;;;;;3.65;0.70;;;;;;;26.72;26.70;99233.25;5058978;28;20109;-70
2021/05/14 11:14:22;;;;;;;3.20;0.82;;;;;;;26.82;25.35;99221.53;5062054;28;20041;-75
2021/05/14 11:16:52;;;;;;;5.80;0.82;;;;;;;26.75;25.81;99221.03;5058481;28;20226;-70
2021/05/14 11:19:19;;;;;;;4.20;0.70;;;;;;;26.81;24.75;99223.44;5057155;28;20327;-73
2021/05/14 11:22:15;;;;;;;2.35;0.95;;;;;;;26.99;25.83;99219.28;5057584;28;20036;-70
2021/05/14 11:25:02;;;;;;;4.13;0.82;;;;;;;26.82;24.77;99221.53;5057598;28;20282;-75
2021/05/14 11:27:33;;;;;;;2.08;0.73;;;;;;;26.57;26.02;99217.06;5054513;28;20045;-74
2021/05/14 11:30:05;;;;;;;1.80;0.80;;;;;;;26.72;24.86;99222.41;5058211;28;20319;-70
2021/05/14 11:32:34;;;;;;;2.60;0.70;;;;;;;26.35;25.10;99225.56;5057215;28;20191;-70
2021/05/14 11:35:04;;;;;;;4.35;1.10;;;;;;;26.53;25.32;99213.28;5056836;28;20044;-74
2021/05/14 11:37:43;;;;;;;4.32;0.73;;;;;;;26.69;24.20;99207.47;5057747;28;20092;-70
2021/05/14 11:40:13;;;;;;;2.22;0.60;;;;;;;26.68;24.49;99186.84;5057676;28;20041;-75